Time;durP1;ratioP1;P1;durP2;ratioP2;P2;SDS_P1;SDS_P2;PMS_P1;PMS_P2;Temp;Humidity;BMP_temperature;BMP_pressure;BME280_temperature;BME280_humidity;BME280_pressure;Samples;Min_cycle;Max_cycle;Signal;HPM_P1;HPM_P2
2024/03/28 00:00:14;;;;;;;82.00;35.60;;;;;;;11.33;54.46;99781.41;107981;1258;74562;-67
2024/03/28 00:02:41;;;;;;;416.00;194.10;;;;;;;11.20;54.78;99779.23;107992;1259;68994;-66
2024/03/28 00:05:09;;;;;;;143.00;67.90;;;;;;;11.24;54.75;99778.33;108083;1254;72722;-69
2024/03/28 00:07:36;;;;;;;68.10;34.30;;;;;;;11.32;54.52;99775.15;107670;1255;61239;-67
2024/03/28 00:10:05;;;;;;;87.60;54.90;;;;;;;11.35;54.57;99776.27;108146;1253;60457;-67
2024/03/28 00:12:32;;;;;;;87.10;45.10;;;;;;;11.36;54.60;99778.50;108019;1253;74640;-67
2024/03/28 00:14:59;;;;;;;62.20;32.30;;;;;;;11.39;54.39;99772.51;108028;1253;68571;-68
2024/03/28 00:17:26;;;;;;;62.50;31.40;;;;;;;11.40;54.51;99764.73;107989;1255;72835;-67
2024/03/28 00:19:54;;;;;;;71.70;36.90;;;;;;;11.49;54.42;99770.67;107982;1254;61337;-68
2024/03/28 00:22:21;;;;;;;65.80;31.50;;;;;;;11.59;54.19;99767.95;107986;1254;61165;-64
2024/03/28 00:24:48;;;;;;;65.70;33.70;;;;;;;11.57;54.31;99765.39;107925;1253;73500;-69
2024/03/28 00:27:15;;;;;;;61.20;29.10;;;;;;;11.68;54.08;99761.84;107983;1253;70115;-67
2024/03/28 00:29:43;;;;;;;78.90;38.30;;;;;;;11.67;54.22;99764.20;107981;1254;71436;-67
2024/03/28 00:32:10;;;;;;;67.00;33.20;;;;;;;11.78;53.97;99760.31;108094;1257;61109;-66
2024/03/28 00:34:37;;;;;;;70.30;33.20;;;;;;;11.76;54.14;99756.37;108064;1253;61105;-66
2024/03/28 00:37:05;;;;;;;76.60;39.50;;;;;;;11.70;54.22;99759.64;108142;1254;73416;-68
2024/03/28 00:39:32;;;;;;;67.00;35.10;;;;;;;11.84;54.01;99756.73;108245;1253;69220;-66
2024/03/28 00:41:59;;;;;;;67.70;36.30;;;;;;;11.66;54.44;99754.42;108286;1256;72703;-67
2024/03/28 00:44:27;;;;;;;53.90;27.50;;;;;;;11.81;53.89;99750.70;108213;1255;61169;-67
2024/03/28 00:46:54;;;;;;;50.50;27.40;;;;;;;11.81;54.11;99745.44;108206;1254;60940;-67
2024/03/28 00:49:21;;;;;;;63.00;30.00;;;;;;;11.92;53.90;99745.09;108241;1257;74674;-68
2024/03/28 00:51:49;;;;;;;53.50;28.80;;;;;;;12.07;53.54;99738.21;108262;1254;68895;-67
2024/03/28 00:54:16;;;;;;;61.00;32.20;;;;;;;11.82;54.04;99736.95;108168;1254;73203;-69
2024/03/28 00:56:43;;;;;;;52.90;28.00;;;;;;;12.04;53.41;99734.30;108180;1255;61228;-67
2024/03/28 00:59:10;;;;;;;51.50;28.70;;;;;;;12.00;53.46;99725.55;108204;1254;61292;-64
2024/03/28 01:01:38;;;;;;;64.60;33.70;;;;;;;11.85;53.83;99726.93;108163;1256;73524;-67
2024/03/28 01:04:05;;;;;;;57.00;28.70;;;;;;;11.90;53.59;99723.88;108175;1256;70127;-67
2024/03/28 01:06:32;;;;;;;49.90;25.90;;;;;;;11.78;53.86;99720.42;108225;1258;72527;-67
2024/03/28 01:08:59;;;;;;;55.40;27.10;;;;;;;11.76;53.84;99718.55;108265;1254;59561;-66
2024/03/28 01:11:27;;;;;;;56.30;27.30;;;;;;;11.93;53.44;99715.66;108305;1253;61214;-67
2024/03/28 01:13:54;;;;;;;49.40;25.90;;;;;;;11.92;53.38;99716.04;108207;1256;74628;-66
2024/03/28 01:16:21;;;;;;;48.80;25.50;;;;;;;11.84;53.56;99713.08;108210;1256;68864;-68
2024/03/28 01:18:48;;;;;;;50.30;25.90;;;;;;;11.89;53.60;99707.08;108182;1251;71506;-68
2024/03/28 01:21:16;;;;;;;56.60;27.70;;;;;;;12.03;53.26;99700.97;108223;1251;61320;-67
2024/03/28 01:23:43;;;;;;;51.90;26.00;;;;;;;11.89;53.78;99701.06;108294;1256;61154;-67
2024/03/28 01:26:10;;;;;;;54.90;27.00;;;;;;;11.75;54.01;99698.23;108266;1251;74883;-69
2024/03/28 01:28:38;;;;;;;54.80;26.00;;;;;;;11.81;54.14;99695.50;108277;1251;68836;-66
2024/03/28 01:31:07;;;;;;;44.30;23.60;;;;;;;11.83;54.04;99699.23;108234;1256;71442;-65
2024/03/28 01:33:34;;;;;;;42.60;23.50;;;;;;;11.79;54.20;99696.64;108340;1251;61035;-67
2024/03/28 01:36:02;;;;;;;50.50;25.20;;;;;;;12.05;53.56;99692.05;108082;1253;61219;-67
2024/03/28 01:38:29;;;;;;;54.70;26.20;;;;;;;12.12;53.41;99693.11;108078;1254;74637;-67
2024/03/28 01:40:57;;;;;;;49.40;24.60;;;;;;;12.19;53.26;99691.34;108056;1253;70658;-67
2024/03/28 01:43:24;;;;;;;47.10;24.60;;;;;;;12.35;52.88;99693.35;108002;1255;71409;-67
2024/03/28 01:45:51;;;;;;;47.30;24.40;;;;;;;12.28;52.96;99694.72;108069;1254;61292;-67
2024/03/28 01:48:18;;;;;;;45.30;23.80;;;;;;;12.42;52.65;99689.48;108101;1259;61173;-65
2024/03/28 01:50:46;;;;;;;44.30;23.80;;;;;;;12.39;52.49;99690.45;108042;1253;75157;-66
2024/03/28 01:53:13;;;;;;;50.10;24.90;;;;;;;12.31;52.49;99688.60;107926;1254;69943;-67
2024/03/28 01:55:40;;;;;;;42.30;24.40;;;;;;;12.39;52.32;99686.82;107985;1254;72768;-66
2024/03/28 01:58:08;;;;;;;41.80;22.90;;;;;;;12.34;52.25;99686.48;108096;1254;61210;-65
2024/03/28 02:00:35;;;;;;;39.70;22.40;;;;;;;12.46;51.94;99688.38;107990;1254;61338;-67
2024/03/28 02:03:03;;;;;;;39.30;21.70;;;;;;;12.39;51.97;99687.46;108084;1254;74254;-68
2024/03/28 02:05:30;;;;;;;45.00;23.50;;;;;;;12.27;52.21;99686.33;108074;1254;69176;-67
2024/03/28 02:07:58;;;;;;;44.20;23.50;;;;;;;12.29;52.26;99691.17;108068;1252;72490;-67
2024/03/28 02:10:25;;;;;;;41.30;23.20;;;;;;;12.33;52.03;99691.46;108211;1252;61219;-65
2024/03/28 02:12:52;;;;;;;46.40;24.10;;;;;;;12.39;51.84;99690.16;107966;1259;60392;-65
2024/03/28 02:15:19;;;;;;;44.40;24.50;;;;;;;12.40;51.79;99687.80;107992;1254;74625;-66
2024/03/28 02:17:47;;;;;;;40.20;22.50;;;;;;;12.38;51.75;99685.95;108072;1254;70030;-63
2024/03/28 02:20:16;;;;;;;45.20;24.90;;;;;;;12.32;51.75;99679.21;108079;1254;72822;-64
2024/03/28 02:22:43;;;;;;;43.40;22.90;;;;;;;12.31;51.74;99680.33;108118;1253;61128;-67
2024/03/28 02:25:11;;;;;;;44.80;24.90;;;;;;;12.25;51.91;99677.64;108023;1254;61043;-66
2024/03/28 02:27:39;;;;;;;43.70;24.60;;;;;;;12.15;52.13;99676.39;108035;1252;74945;-65
2024/03/28 02:30:07;;;;;;;44.50;23.20;;;;;;;12.15;52.16;99676.73;108060;1259;69107;-66
2024/03/28 02:32:35;;;;;;;43.30;22.00;;;;;;;12.22;52.01;99677.77;108124;1254;73455;-65
2024/03/28 02:35:06;;;;;;;40.80;21.10;;;;;;;12.20;51.89;99680.73;108081;1254;61103;-64
2024/03/28 02:37:34;;;;;;;39.20;22.30;;;;;;;12.20;51.95;99680.38;108153;1252;61161;-66
2024/03/28 02:40:02;;;;;;;43.20;23.60;;;;;;;12.29;51.64;99675.54;108243;1256;73069;-66
2024/03/28 02:42:29;;;;;;;34.10;19.60;;;;;;;12.43;51.30;99678.14;108255;1251;69631;-65
2024/03/28 02:44:56;;;;;;;39.70;21.30;;;;;;;12.52;51.02;99675.73;108307;1253;72743;-66
2024/03/28 02:47:23;;;;;;;34.00;19.50;;;;;;;12.57;50.90;99675.29;108181;1251;61186;-66
2024/03/28 02:49:51;;;;;;;36.70;20.70;;;;;;;12.53;50.94;99672.84;108234;1251;61247;-66
2024/03/28 02:52:18;;;;;;;40.70;21.80;;;;;;;12.61;50.65;99675.95;108151;1251;74684;-67
2024/03/28 02:54:45;;;;;;;38.10;21.10;;;;;;;12.86;50.16;99673.40;108172;1256;69874;-67
2024/03/28 02:57:24;;;;;;;36.00;19.70;;;;;;;12.75;50.22;99670.80;108233;1256;71684;-65
2024/03/28 02:59:53;;;;;;;35.00;20.40;;;;;;;12.89;49.92;99671.83;108262;1254;61394;-66
2024/03/28 03:02:20;;;;;;;34.40;19.50;;;;;;;12.89;49.68;99669.17;108134;1251;60987;-65
2024/03/28 03:04:47;;;;;;;36.00;20.50;;;;;;;12.65;50.12;99669.42;108236;1251;74661;-66
2024/03/28 03:07:15;;;;;;;33.90;20.20;;;;;;;12.72;49.99;99670.05;108196;1251;68599;-66
2024/03/28 03:09:43;;;;;;;30.80;17.40;;;;;;;12.76;49.95;99670.40;108170;1260;71436;-66
2024/03/28 03:12:10;;;;;;;35.40;19.60;;;;;;;12.74;49.91;99668.41;108420;1254;59599;-67
2024/03/28 03:14:38;;;;;;;31.50;18.10;;;;;;;12.65;50.13;99663.23;108261;1251;61167;-68
2024/03/28 03:17:05;;;;;;;33.20;18.40;;;;;;;12.74;50.02;99659.43;108167;1251;73747;-66
2024/03/28 03:19:33;;;;;;;29.80;17.60;;;;;;;12.69;50.06;99656.48;108251;1257;68750;-66
2024/03/28 03:22:00;;;;;;;29.30;16.80;;;;;;;12.73;49.85;99656.28;108200;1256;72478;-67
2024/03/28 03:24:34;;;;;;;31.90;17.90;;;;;;;12.76;49.58;99647.53;108183;1251;61342;-67
2024/03/28 03:27:04;;;;;;;33.80;18.00;;;;;;;12.87;49.40;99650.41;108253;1251;61016;-69
2024/03/28 03:35:05;;;;;;;30.20;17.20;;;;;;;12.87;49.18;99650.44;108119;1254;71322;-66
2024/03/28 03:37:35;;;;;;;28.70;17.00;;;;;;;12.79;49.19;99647.18;108118;1254;61256;-67
2024/03/28 03:40:05;;;;;;;30.50;17.60;;;;;;;12.98;48.89;99647.91;108099;1254;61081;-67
2024/03/28 03:42:32;;;;;;;30.00;17.40;;;;;;;12.95;48.85;99643.46;108054;1254;73641;-66
2024/03/28 03:45:00;;;;;;;36.00;17.80;;;;;;;12.98;48.82;99641.76;108022;1252;68725;-68
2024/03/28 03:47:27;;;;;;;37.00;20.70;;;;;;;13.12;48.54;99642.91;108039;1258;72392;-67
2024/03/28 03:49:55;;;;;;;36.60;19.00;;;;;;;13.01;48.74;99645.06;108008;1254;61261;-68
2024/03/28 03:52:22;;;;;;;43.90;22.30;;;;;;;13.05;48.79;99636.09;107955;1253;61145;-67
2024/03/28 03:54:49;;;;;;;37.50;21.30;;;;;;;13.01;48.93;99635.23;108036;1253;73425;-67
2024/03/28 03:57:16;;;;;;;37.20;19.90;;;;;;;13.06;48.86;99635.30;108062;1254;70397;-67
2024/03/28 03:59:44;;;;;;;39.90;22.50;;;;;;;13.10;48.79;99629.45;108112;1254;71476;-66
2024/03/28 04:02:11;;;;;;;37.10;20.10;;;;;;;12.97;48.97;99624.88;107928;1254;61241;-66
2024/03/28 04:04:38;;;;;;;34.00;19.40;;;;;;;13.07;48.86;99620.47;108050;1254;60017;-68
2024/03/28 04:07:05;;;;;;;38.40;19.30;;;;;;;12.97;49.04;99617.14;108130;1254;74747;-67
2024/03/28 04:09:33;;;;;;;36.10;20.50;;;;;;;13.02;49.07;99616.47;108114;1253;69010;-68
2024/03/28 04:12:00;;;;;;;37.00;20.60;;;;;;;13.01;49.12;99612.48;108171;1259;71320;-67
2024/03/28 04:14:27;;;;;;;39.20;21.20;;;;;;;12.98;49.18;99609.84;108049;1254;61334;-67
2024/03/28 04:16:55;;;;;;;42.70;21.70;;;;;;;12.99;49.29;99611.92;108080;1253;61138;-67
2024/03/28 04:19:22;;;;;;;40.10;22.60;;;;;;;12.91;49.44;99609.52;108100;1253;74632;-68
2024/03/28 04:21:50;;;;;;;37.00;21.10;;;;;;;12.97;49.43;99605.15;108009;1254;69964;-68
2024/03/28 04:24:18;;;;;;;40.00;22.00;;;;;;;13.15;49.03;99600.81;108093;1254;72618;-67
2024/03/28 04:26:45;;;;;;;40.80;22.40;;;;;;;13.08;49.13;99597.31;108034;1254;61192;-68
2024/03/28 04:29:12;;;;;;;37.10;20.50;;;;;;;12.97;49.28;99602.88;108048;1253;60356;-68
2024/03/28 04:31:40;;;;;;;43.20;23.00;;;;;;;12.93;49.32;99596.37;108042;1254;74609;-67
2024/03/28 04:34:07;;;;;;;46.20;23.80;;;;;;;12.92;49.26;99592.39;108018;1254;69158;-67
2024/03/28 04:36:34;;;;;;;37.70;20.90;;;;;;;12.82;49.51;99592.02;107983;1254;71915;-68
2024/03/28 04:39:02;;;;;;;35.60;21.20;;;;;;;12.80;49.55;99591.83;108017;1254;61382;-68
2024/03/28 04:41:29;;;;;;;36.20;19.60;;;;;;;12.97;49.20;99589.30;108141;1254;61121;-68
2024/03/28 04:43:57;;;;;;;33.90;18.80;;;;;;;13.00;49.11;99589.45;108024;1254;75083;-67
2024/03/28 04:46:24;;;;;;;33.30;18.40;;;;;;;12.95;49.07;99585.17;108000;1254;69060;-69
2024/03/28 04:48:52;;;;;;;31.80;17.80;;;;;;;13.14;48.73;99580.25;107961;1254;71192;-67
2024/03/28 04:51:19;;;;;;;34.00;16.80;;;;;;;13.04;48.85;99580.77;108009;1259;61097;-68
2024/03/28 04:53:47;;;;;;;29.00;16.20;;;;;;;12.93;49.09;99581.58;108052;1254;61095;-67
2024/03/28 04:56:14;;;;;;;25.10;15.10;;;;;;;12.90;49.00;99584.39;107798;1254;73385;-67
2024/03/28 04:58:41;;;;;;;32.90;17.80;;;;;;;12.90;49.01;99582.80;108022;1254;69306;-68
2024/03/28 05:01:09;;;;;;;26.30;15.50;;;;;;;13.05;48.56;99575.45;107938;1256;71802;-68
2024/03/28 05:03:36;;;;;;;29.40;16.20;;;;;;;13.27;48.14;99572.62;107950;1254;61254;-68
2024/03/28 05:06:04;;;;;;;25.90;15.00;;;;;;;13.27;47.97;99570.86;107996;1254;60711;-67
2024/03/28 05:08:31;;;;;;;25.70;15.10;;;;;;;13.35;47.54;99572.38;107997;1255;73497;-68
2024/03/28 05:10:58;;;;;;;22.60;14.00;;;;;;;13.41;47.29;99568.84;107982;1254;70608;-68
2024/03/28 05:13:26;;;;;;;21.50;13.30;;;;;;;13.36;47.20;99564.75;108008;1260;71671;-68
2024/03/28 05:15:53;;;;;;;25.20;14.00;;;;;;;13.35;47.04;99566.73;108053;1255;61228;-68
2024/03/28 05:18:20;;;;;;;22.00;12.90;;;;;;;13.35;46.97;99565.68;107981;1254;61178;-68
2024/03/28 05:20:47;;;;;;;21.00;12.40;;;;;;;13.40;46.87;99557.15;107973;1259;74642;-67
2024/03/28 05:23:15;;;;;;;24.00;12.90;;;;;;;13.28;46.94;99553.58;107942;1259;69093;-68
2024/03/28 05:25:42;;;;;;;22.90;13.50;;;;;;;13.30;46.97;99543.23;107952;1254;71272;-68
2024/03/28 05:28:09;;;;;;;21.80;13.40;;;;;;;13.54;46.68;99544.26;108042;1257;59853;-69
2024/03/28 05:30:37;;;;;;;23.60;12.40;;;;;;;13.68;46.44;99539.42;108009;1254;61005;-68
2024/03/28 05:35:27;;;;;;;23.10;12.70;;;;;;;11.31;51.34;99541.87;104725;1293;599972;-68
2024/03/28 05:37:53;;;;;;;18.30;11.90;;;;;;;12.48;48.62;99544.73;107687;1260;59520;-68
2024/03/28 05:40:20;;;;;;;18.00;11.60;;;;;;;12.65;48.16;99541.00;107672;1263;59638;-68
2024/03/28 05:42:46;;;;;;;23.20;13.10;;;;;;;12.47;48.44;99533.56;107698;1260;59113;-68
2024/03/28 05:45:13;;;;;;;20.90;11.10;;;;;;;12.65;48.35;99537.65;107726;1260;68774;-68
2024/03/28 05:47:40;;;;;;;21.00;11.40;;;;;;;12.63;48.13;99542.01;107577;1257;149402;-68
2024/03/28 05:50:07;;;;;;;26.10;11.40;;;;;;;12.71;48.14;99545.44;107853;1256;59627;-68
2024/03/28 05:52:33;;;;;;;23.10;11.00;;;;;;;13.02;47.60;99539.16;107890;1257;60255;-68
2024/03/28 05:55:00;;;;;;;16.80;10.80;;;;;;;13.17;47.06;99540.02;107876;1257;72016;-68
2024/03/28 05:57:27;;;;;;;16.50;9.40;;;;;;;13.07;47.19;99542.00;107878;1257;69371;-64
2024/03/28 05:59:53;;;;;;;16.80;10.40;;;;;;;12.92;47.02;99540.90;107894;1257;73104;-68
2024/03/28 06:02:20;;;;;;;17.50;9.70;;;;;;;12.89;46.85;99539.73;107880;1258;60469;-69
2024/03/28 06:04:46;;;;;;;19.40;9.40;;;;;;;13.16;46.18;99535.86;107855;1257;60399;-64
2024/03/28 06:07:13;;;;;;;17.30;9.00;;;;;;;13.14;46.05;99528.05;107881;1258;60469;-68
2024/03/28 06:09:39;;;;;;;16.30;8.80;;;;;;;13.25;45.88;99526.56;107903;1257;70143;-69
2024/03/28 06:12:07;;;;;;;14.40;8.80;;;;;;;13.52;45.51;99516.02;107830;1257;72482;-68
2024/03/28 06:14:36;;;;;;;16.00;8.90;;;;;;;13.66;45.18;99512.38;107707;1262;61099;-68
2024/03/28 06:17:02;;;;;;;15.80;9.00;;;;;;;13.54;44.93;99505.64;107767;1258;60322;-68
2024/03/28 06:19:29;;;;;;;18.00;8.90;;;;;;;13.64;44.40;99502.77;107756;1263;73948;-67
2024/03/28 06:21:56;;;;;;;14.90;8.70;;;;;;;13.75;44.25;99497.54;107722;1257;69067;-67
2024/03/28 06:24:22;;;;;;;15.00;8.00;;;;;;;13.87;44.12;99494.54;107771;1257;60407;-68
2024/03/28 06:26:49;;;;;;;12.00;7.90;;;;;;;13.87;43.81;99487.11;107822;1258;60431;-68
2024/03/28 06:29:15;;;;;;;16.20;8.80;;;;;;;13.94;43.59;99484.73;107691;1257;61230;-66
2024/03/28 06:31:44;;;;;;;16.70;8.10;;;;;;;13.92;43.52;99483.81;107745;1258;73572;-68
2024/03/28 06:34:11;;;;;;;12.10;7.60;;;;;;;13.74;43.84;99481.40;107740;1257;70781;-68
2024/03/28 06:36:38;;;;;;;15.90;7.50;;;;;;;13.99;43.63;99480.40;107792;1263;72668;-69
2024/03/28 06:39:06;;;;;;;11.60;7.40;;;;;;;13.93;43.89;99482.02;107586;1257;62893;-68
2024/03/28 06:41:32;;;;;;;12.00;7.50;;;;;;;13.71;44.07;99479.61;108151;1254;60380;-68
2024/03/28 06:43:59;;;;;;;13.10;7.60;;;;;;;14.08;43.66;99478.59;108124;1257;73922;-67
2024/03/28 06:46:26;;;;;;;14.30;7.60;;;;;;;13.95;43.66;99471.98;108180;1256;69835;-68
2024/03/28 06:48:52;;;;;;;15.00;7.50;;;;;;;13.93;43.64;99467.50;108044;1254;72331;-69
2024/03/28 06:51:21;;;;;;;14.50;7.60;;;;;;;13.99;43.57;99465.38;108087;1254;61058;-68
2024/03/28 06:53:48;;;;;;;16.80;7.30;;;;;;;14.28;42.81;99459.70;108186;1254;60301;-68
2024/03/28 06:56:15;;;;;;;15.50;8.00;;;;;;;14.23;42.68;99459.11;108200;1254;74153;-67
2024/03/28 06:58:41;;;;;;;13.10;7.40;;;;;;;14.19;42.62;99454.23;108186;1254;70171;-68
2024/03/28 07:01:08;;;;;;;10.50;7.00;;;;;;;14.29;42.36;99451.16;108123;1253;74014;-68
2024/03/28 07:03:35;;;;;;;14.50;5.90;;;;;;;14.35;41.95;99450.92;108028;1254;61039;-68
2024/03/28 07:06:02;;;;;;;12.60;6.50;;;;;;;14.32;41.77;99449.58;108130;1254;60330;-68
2024/03/28 07:08:41;;;;;;;12.70;5.90;;;;;;;14.49;40.78;99445.31;108128;1254;71911;-68
2024/03/28 07:11:08;;;;;;;13.20;6.50;;;;;;;14.53;40.98;99439.42;108102;1254;70483;-69
2024/03/28 07:13:36;;;;;;;9.20;5.00;;;;;;;14.59;40.52;99437.62;108061;1253;73053;-68
2024/03/28 07:16:04;;;;;;;8.70;4.90;;;;;;;14.54;40.26;99436.50;108166;1257;62280;-69
2024/03/28 07:18:31;;;;;;;10.60;4.80;;;;;;;14.68;39.92;99437.03;108195;1254;60325;-68
2024/03/28 07:20:58;;;;;;;12.40;4.70;;;;;;;14.74;39.72;99432.23;108155;1254;71936;-68
2024/03/28 07:23:29;;;;;;;9.80;5.40;;;;;;;14.81;39.63;99428.98;108165;1254;70564;-68
2024/03/28 07:25:56;;;;;;;11.90;5.50;;;;;;;14.92;39.39;99425.40;108012;1253;72791;-67
2024/03/28 07:28:23;;;;;;;12.80;5.00;;;;;;;14.93;39.02;99422.50;108014;1254;62510;-68
2024/03/28 07:30:49;;;;;;;10.40;5.50;;;;;;;14.80;39.41;99418.91;108124;1255;62133;-68
2024/03/28 07:33:16;;;;;;;11.40;5.00;;;;;;;15.06;38.47;99413.49;108133;1254;73896;-68
2024/03/28 07:35:43;;;;;;;12.20;5.40;;;;;;;15.34;38.25;99408.42;108170;1254;70113;-68
2024/03/28 07:38:09;;;;;;;17.10;5.60;;;;;;;15.34;38.19;99407.88;108145;1255;72572;-69
2024/03/28 07:40:36;;;;;;;11.30;5.40;;;;;;;15.91;37.90;99411.45;108069;1254;59558;-67
2024/03/28 07:43:03;;;;;;;11.50;5.80;;;;;;;16.09;37.21;99402.86;108133;1253;63548;-66
2024/03/28 07:45:30;;;;;;;14.10;5.60;;;;;;;16.39;36.95;99397.34;108043;1254;73901;-69
2024/03/28 07:47:56;;;;;;;9.20;4.70;;;;;;;16.69;35.70;99392.73;108135;1254;70366;-68
2024/03/28 07:50:23;;;;;;;8.10;4.10;;;;;;;16.97;34.95;99392.42;108152;1254;72681;-68
2024/03/28 07:52:50;;;;;;;5.70;2.60;;;;;;;17.62;33.77;99395.47;108149;1253;60324;-68
2024/03/28 07:55:17;;;;;;;17.20;5.10;;;;;;;17.80;33.08;99383.95;108157;1257;60870;-67
2024/03/28 07:57:45;;;;;;;10.80;4.50;;;;;;;18.55;32.35;99386.10;108149;1254;75116;-67
2024/03/28 08:00:15;;;;;;;8.40;4.30;;;;;;;19.16;31.39;99380.49;108179;1254;70071;-67
2024/03/28 08:02:43;;;;;;;7.80;3.50;;;;;;;19.03;30.59;99387.48;108207;1256;71255;-70
2024/03/28 08:05:12;;;;;;;8.40;3.50;;;;;;;18.79;30.46;99384.49;108146;1253;60365;-68
2024/03/28 08:07:39;;;;;;;12.00;3.90;;;;;;;18.84;31.02;99384.11;108224;1253;60287;-70
2024/03/28 08:10:09;;;;;;;7.80;3.90;;;;;;;18.81;30.66;99391.77;108152;1254;73832;-70
2024/03/28 08:12:37;;;;;;;12.50;4.10;;;;;;;18.60;30.73;99393.63;108137;1254;70241;-68
2024/03/28 08:15:05;;;;;;;6.00;3.90;;;;;;;18.53;30.89;99382.20;108136;1254;72586;-69
2024/03/28 08:17:33;;;;;;;12.00;4.30;;;;;;;18.28;31.03;99388.67;108132;1256;60306;-69
2024/03/28 08:20:00;;;;;;;8.40;4.50;;;;;;;18.05;31.39;99386.18;108186;1254;60271;-69
2024/03/28 08:22:27;;;;;;;7.50;4.20;;;;;;;18.29;31.08;99391.27;108085;1259;75024;-68
2024/03/28 08:24:55;;;;;;;6.40;3.30;;;;;;;18.12;31.43;99378.56;108195;1254;68998;-69
2024/03/28 08:27:26;;;;;;;6.30;3.00;;;;;;;18.05;31.57;99370.39;108036;1254;72998;-68
2024/03/28 08:29:53;;;;;;;7.30;3.60;;;;;;;18.05;31.50;99375.35;108010;1254;60441;-69
2024/03/28 08:32:19;;;;;;;11.50;3.40;;;;;;;18.29;31.22;99389.07;108115;1257;60454;-69
2024/03/28 08:34:47;;;;;;;8.50;3.40;;;;;;;18.01;31.76;99366.61;108078;1254;74257;-67
2024/03/28 08:37:13;;;;;;;9.10;3.90;;;;;;;18.35;31.54;99364.61;108049;1254;67995;-69
2024/03/28 08:39:43;;;;;;;10.90;3.90;;;;;;;18.77;30.93;99358.36;107999;1257;72645;-70
2024/03/28 08:42:10;;;;;;;5.40;3.30;;;;;;;18.84;30.74;99363.80;108081;1254;60464;-69
2024/03/28 08:44:37;;;;;;;6.60;3.40;;;;;;;18.76;31.05;99363.19;108081;1253;61370;-69
2024/03/28 08:47:04;;;;;;;9.70;3.40;;;;;;;19.07;31.12;99353.54;108095;1254;73591;-70
2024/03/28 08:49:32;;;;;;;9.30;3.40;;;;;;;19.25;30.78;99359.25;108076;1254;72086;-69
2024/03/28 08:51:59;;;;;;;6.20;3.30;;;;;;;19.18;30.82;99355.59;108072;1254;71481;-69
2024/03/28 08:54:26;;;;;;;10.90;4.10;;;;;;;18.81;31.29;99354.77;108093;1254;60453;-69
2024/03/28 08:56:52;;;;;;;8.50;3.50;;;;;;;18.72;31.45;99358.04;108099;1254;60677;-70
2024/03/28 08:59:20;;;;;;;12.30;3.40;;;;;;;18.52;31.80;99359.67;108073;1254;71520;-69
2024/03/28 09:01:46;;;;;;;7.40;3.40;;;;;;;18.81;31.83;99354.07;108132;1254;69654;-69
2024/03/28 09:04:20;;;;;;;13.90;4.20;;;;;;;19.10;31.47;99348.77;108106;1253;72477;-69
2024/03/28 09:06:49;;;;;;;9.20;3.50;;;;;;;19.56;31.06;99343.26;108086;1254;60434;-68
2024/03/28 09:09:15;;;;;;;6.90;3.20;;;;;;;19.84;30.58;99357.45;108037;1254;60476;-68
2024/03/28 09:11:42;;;;;;;6.40;3.00;;;;;;;20.02;30.30;99337.11;108026;1254;73774;-69
2024/03/28 09:14:09;;;;;;;13.00;4.40;;;;;;;19.91;30.44;99335.23;108005;1254;69052;-69
2024/03/28 09:16:36;;;;;;;4.20;2.90;;;;;;;20.05;30.29;99331.67;108000;1254;73170;-69
2024/03/28 09:19:03;;;;;;;7.50;3.80;;;;;;;19.69;30.94;99332.91;108021;1254;60444;-68
2024/03/28 09:21:30;;;;;;;12.00;3.80;;;;;;;19.78;30.94;99326.80;108013;1253;60883;-69
2024/03/28 09:23:57;;;;;;;7.20;3.00;;;;;;;20.32;30.49;99317.37;108031;1254;73954;-69
2024/03/28 09:26:24;;;;;;;7.40;2.90;;;;;;;20.43;30.48;99315.83;108080;1254;70388;-70
2024/03/28 09:28:58;;;;;;;4.40;2.70;;;;;;;20.71;30.05;99315.54;108042;1254;71459;-70
2024/03/28 09:31:27;;;;;;;5.70;3.20;;;;;;;21.28;29.66;99311.93;108004;1254;60440;-69
2024/03/28 09:33:54;;;;;;;9.50;3.40;;;;;;;21.11;29.99;99316.16;108017;1254;59618;-70
2024/03/28 09:36:20;;;;;;;5.80;2.60;;;;;;;20.74;30.43;99311.19;108024;1253;72641;-69
2024/03/28 09:38:50;;;;;;;8.60;3.30;;;;;;;20.42;31.13;99304.49;108153;1254;70014;-69
2024/03/28 09:41:26;;;;;;;10.50;3.30;;;;;;;21.04;30.81;99310.23;108141;1254;72138;-69
2024/03/28 09:44:06;;;;;;;12.00;3.70;;;;;;;20.67;31.11;99314.30;108146;1253;61215;-68
2024/03/28 09:46:33;;;;;;;7.60;3.60;;;;;;;20.65;31.25;99322.56;108135;1253;61660;-69
2024/03/28 09:49:01;;;;;;;7.80;3.40;;;;;;;20.57;31.48;99313.97;108124;1254;74547;-69
2024/03/28 09:51:29;;;;;;;11.50;3.60;;;;;;;20.68;31.58;99303.95;108178;1254;68229;-69
2024/03/28 09:54:01;;;;;;;7.30;2.70;;;;;;;20.60;31.56;99308.96;108006;1259;72414;-69
2024/03/28 09:56:28;;;;;;;7.10;3.00;;;;;;;20.74;31.86;99297.69;108157;1253;61093;-68
2024/03/28 09:58:55;;;;;;;7.10;3.70;;;;;;;21.20;31.42;99286.41;108137;1253;61164;-68
2024/03/28 10:01:22;;;;;;;9.50;3.50;;;;;;;21.80;31.02;99277.98;108015;1254;76013;-70
2024/03/28 10:04:04;;;;;;;4.00;2.00;;;;;;;22.32;30.42;99277.59;108071;1253;69158;-69
2024/03/28 10:06:31;;;;;;;7.40;2.90;;;;;;;22.20;30.59;99277.48;108169;1253;71823;-70
2024/03/28 10:08:57;;;;;;;10.30;3.30;;;;;;;22.54;30.32;99272.69;108155;1253;61052;-70
2024/03/28 10:11:24;;;;;;;7.70;3.20;;;;;;;22.88;30.08;99269.48;107910;1253;61148;-70
2024/03/28 10:13:51;;;;;;;9.50;3.00;;;;;;;23.16;29.58;99262.52;108068;1253;74541;-69
2024/03/28 10:16:18;;;;;;;9.60;2.60;;;;;;;23.15;29.79;99261.84;108120;1253;71643;-69
2024/03/28 10:18:45;;;;;;;6.60;2.10;;;;;;;23.01;29.99;99256.34;108132;1253;71649;-69
2024/03/28 10:21:12;;;;;;;7.70;2.70;;;;;;;22.70;30.35;99269.79;108157;1252;61231;-70
2024/03/28 10:23:39;;;;;;;11.20;2.70;;;;;;;22.63;30.76;99254.84;107881;1256;61218;-69
2024/03/28 10:26:09;;;;;;;11.80;3.10;;;;;;;22.64;30.71;99265.79;108142;1253;75666;-69
2024/03/28 10:28:36;;;;;;;12.20;2.60;;;;;;;22.60;30.92;99265.12;108115;1254;69331;-68
2024/03/28 10:31:04;;;;;;;7.40;2.80;;;;;;;22.50;31.36;99256.80;107867;1253;72685;-69
2024/03/28 10:33:34;;;;;;;12.20;3.20;;;;;;;22.21;31.86;99256.45;108113;1254;61138;-70
2024/03/28 10:36:02;;;;;;;14.40;3.90;;;;;;;22.35;31.68;99262.94;108035;1253;61165;-69
2024/03/28 10:38:30;;;;;;;6.80;3.20;;;;;;;22.72;31.15;99252.50;108034;1253;73685;-69
2024/03/28 10:41:00;;;;;;;10.70;2.90;;;;;;;22.82;30.92;99254.99;108082;1253;70307;-69
2024/03/28 10:43:27;;;;;;;7.60;2.80;;;;;;;23.23;30.62;99255.47;107809;1257;73734;-69
2024/03/28 10:46:05;;;;;;;6.40;2.00;;;;;;;23.27;30.51;99256.11;108092;1253;61151;-71
2024/03/28 10:48:33;;;;;;;11.90;2.60;;;;;;;22.90;31.07;99257.77;108074;1256;61269;-69
2024/03/28 10:51:20;;;;;;;8.10;2.70;;;;;;;22.93;31.26;99244.80;107962;1254;73144;-69
2024/03/28 10:54:08;;;;;;;7.90;2.80;;;;;;;23.25;30.82;99232.70;107970;1253;68987;-69
2024/03/28 10:56:46;;;;;;;11.20;3.00;;;;;;;23.49;30.70;99225.95;107925;1253;71658;-69
2024/03/28 10:59:13;;;;;;;6.10;3.10;;;;;;;23.52;30.54;99219.66;108019;1254;61346;-69
2024/03/28 11:01:40;;;;;;;6.10;3.70;;;;;;;23.75;30.56;99218.91;108014;1253;61027;-67
2024/03/28 11:04:07;;;;;;;7.10;2.50;;;;;;;24.10;29.89;99217.85;108047;1254;74682;-70
2024/03/28 11:06:35;;;;;;;6.30;2.80;;;;;;;24.35;29.66;99209.34;107924;1253;69785;-69
2024/03/28 11:09:03;;;;;;;4.60;2.60;;;;;;;24.68;29.38;99195.76;108064;1253;72800;-69
2024/03/28 11:11:30;;;;;;;8.60;3.50;;;;;;;24.66;29.35;99196.33;107908;1253;61527;-69
2024/03/28 11:13:57;;;;;;;9.40;2.90;;;;;;;24.43;29.83;99193.30;107892;1254;61282;-70
2024/03/28 11:16:24;;;;;;;13.40;3.00;;;;;;;24.12;30.01;99206.52;108028;1253;74691;-70
2024/03/28 11:18:51;;;;;;;9.90;3.40;;;;;;;24.10;30.02;99202.42;108000;1253;70182;-68
2024/03/28 11:21:28;;;;;;;10.60;3.80;;;;;;;23.83;30.50;99207.60;107861;1253;74036;-70
2024/03/28 11:23:54;;;;;;;13.40;3.40;;;;;;;24.20;29.94;99188.21;107984;1254;61272;-67